Time;durP1;ratioP1;P1;durP2;ratioP2;P2;SDS_P1;SDS_P2;PMS_P1;PMS_P2;Temp;Humidity;BMP_temperature;BMP_pressure;BME280_temperature;BME280_humidity;BME280_pressure;Samples;Min_cycle;Max_cycle;Signal;HPM_P1;HPM_P2
2022/04/13 00:01:20;;;;;;;;;;;11.50;99.90;;;;;;5092212;28;19970;-47
2022/04/13 00:03:46;;;;;;;;;;;11.50;99.90;;;;;;5097173;28;19928;-48
2022/04/13 00:06:15;;;;;;;;;;;11.50;99.90;;;;;;5089133;28;19924;-47
2022/04/13 00:08:43;;;;;;;;;;;11.60;99.90;;;;;;5091754;28;19924;-47
2022/04/13 00:11:10;;;;;;;;;;;11.60;99.90;;;;;;5085372;28;19924;-47
2022/04/13 00:13:38;;;;;;;;;;;11.60;99.90;;;;;;5095664;28;20815;-47
2022/04/13 00:16:05;;;;;;;;;;;11.60;99.90;;;;;;5090656;28;20535;-48
2022/04/13 00:18:32;;;;;;;;;;;11.50;99.90;;;;;;5086734;28;19924;-46
2022/04/13 00:20:58;;;;;;;;;;;11.50;99.90;;;;;;5092410;28;19924;-48
2022/04/13 00:23:25;;;;;;;;;;;11.50;99.90;;;;;;5097753;28;19928;-51
2022/04/13 00:25:52;;;;;;;;;;;11.40;99.90;;;;;;5085014;28;19924;-48
2022/04/13 00:28:19;;;;;;;;;;;11.50;99.90;;;;;;5099223;28;19924;-47
2022/04/13 00:30:47;;;;;;;;;;;11.50;99.90;;;;;;5081509;28;19929;-47
2022/04/13 00:33:14;;;;;;;;;;;11.50;99.90;;;;;;5091524;28;19928;-47
2022/04/13 00:35:40;;;;;;;;;;;11.40;99.90;;;;;;5091891;28;19988;-47
2022/04/13 00:38:07;;;;;;;;;;;11.60;99.90;;;;;;5091622;28;19977;-47
2022/04/13 00:40:37;;;;;;;;;;;11.60;99.90;;;;;;5088550;28;19973;-47
2022/04/13 00:43:03;;;;;;;;;;;11.60;99.90;;;;;;5082153;28;19924;-47
2022/04/13 00:45:30;;;;;;;;;;;11.50;99.90;;;;;;5090821;28;19978;-46
2022/04/13 00:48:00;;;;;;;;;;;11.30;99.90;;;;;;5091026;28;19949;-47
2022/04/13 00:50:27;;;;;;;;;;;11.30;99.90;;;;;;5088874;28;19971;-47
2022/04/13 00:52:53;;;;;;;;;;;11.20;99.90;;;;;;5088686;28;19947;-48
2022/04/13 00:55:24;;;;;;;;;;;11.10;99.90;;;;;;5075273;28;19925;-47
2022/04/13 00:57:51;;;;;;;;;;;11.00;99.90;;;;;;5074615;28;19935;-47
2022/04/13 01:00:19;;;;;;;;;;;11.00;99.90;;;;;;5091060;28;19925;-47
2022/04/13 01:02:46;;;;;;;;;;;11.10;99.90;;;;;;5094873;28;19942;-47
2022/04/13 01:05:15;;;;;;;;;;;11.10;99.90;;;;;;5093325;28;19985;-47
2022/04/13 01:07:42;;;;;;;;;;;11.20;99.90;;;;;;5092388;28;19923;-47
2022/04/13 01:10:09;;;;;;;;;;;11.40;99.90;;;;;;5100239;28;19924;-47
2022/04/13 01:12:36;;;;;;;;;;;11.50;99.90;;;;;;5090577;28;19928;-46
2022/04/13 01:15:04;;;;;;;;;;;11.40;99.90;;;;;;5092000;28;20373;-48
2022/04/13 01:17:30;;;;;;;;;;;11.40;99.90;;;;;;5094970;28;19977;-47
2022/04/13 01:19:58;;;;;;;;;;;11.50;99.90;;;;;;5090215;28;19977;-47
2022/04/13 01:22:26;;;;;;;;;;;11.60;99.90;;;;;;5090237;28;20408;-47
2022/04/13 01:24:53;;;;;;;;;;;11.60;99.90;;;;;;5094838;28;19928;-46
2022/04/13 01:27:20;;;;;;;;;;;11.70;99.90;;;;;;5096792;28;19924;-47
2022/04/13 01:29:48;;;;;;;;;;;11.70;99.90;;;;;;5097430;28;20018;-47
2022/04/13 01:32:15;;;;;;;;;;;11.50;99.90;;;;;;5086982;28;19924;-48
2022/04/13 01:34:48;;;;;;;;;;;11.30;99.90;;;;;;5091054;28;19924;-47
2022/04/13 01:37:15;;;;;;;;;;;11.30;99.90;;;;;;5084405;28;19924;-47
2022/04/13 01:39:43;;;;;;;;;;;11.10;99.90;;;;;;5089945;28;19970;-47
2022/04/13 01:42:10;;;;;;;;;;;10.90;99.90;;;;;;5083427;28;19985;-48
2022/04/13 01:44:37;;;;;;;;;;;10.90;99.90;;;;;;5096397;28;19980;-47
2022/04/13 01:47:04;;;;;;;;;;;11.00;99.90;;;;;;5096307;28;19925;-46
2022/04/13 01:49:30;;;;;;;;;;;11.00;99.90;;;;;;5112975;28;20338;-47
2022/04/13 01:51:57;;;;;;;;;;;11.00;99.90;;;;;;5099835;28;19928;-47
2022/04/13 01:54:24;;;;;;;;;;;11.00;99.90;;;;;;5093764;28;19986;-47
2022/04/13 01:56:52;;;;;;;;;;;11.00;99.90;;;;;;5094631;28;19924;-48
2022/04/13 01:59:19;;;;;;;;;;;10.80;99.90;;;;;;5079944;28;19978;-47
2022/04/13 02:01:46;;;;;;;;;;;10.70;99.90;;;;;;5082580;28;20397;-47
2022/04/13 02:04:19;;;;;;;;;;;10.60;99.90;;;;;;5093044;28;20351;-48
2022/04/13 02:06:46;;;;;;;;;;;10.60;99.90;;;;;;5072826;28;19978;-47
2022/04/13 02:09:13;;;;;;;;;;;10.70;99.90;;;;;;5088703;28;20454;-46
2022/04/13 02:11:40;;;;;;;;;;;10.70;99.90;;;;;;5089264;28;19931;-46
2022/04/13 02:14:08;;;;;;;;;;;11.00;99.90;;;;;;5096470;28;19980;-46
2022/04/13 02:16:35;;;;;;;;;;;11.00;99.90;;;;;;5093701;28;19924;-47
2022/04/13 02:19:02;;;;;;;;;;;11.00;99.90;;;;;;5098651;28;19928;-47
2022/04/13 02:21:28;;;;;;;;;;;10.70;99.90;;;;;;5088123;28;19970;-47
2022/04/13 02:23:55;;;;;;;;;;;10.50;99.90;;;;;;5113175;28;19930;-47
2022/04/13 02:26:22;;;;;;;;;;;10.30;99.90;;;;;;5096173;28;19924;-47
2022/04/13 02:28:49;;;;;;;;;;;10.20;99.90;;;;;;5092727;28;19928;-47
2022/04/13 02:31:20;;;;;;;;;;;10.30;99.90;;;;;;5093387;28;20344;-47
2022/04/13 02:33:51;;;;;;;;;;;10.10;99.90;;;;;;5098792;28;19946;-47
2022/04/13 02:36:18;;;;;;;;;;;10.30;99.90;;;;;;5108553;28;19969;-47
2022/04/13 02:38:44;;;;;;;;;;;10.50;99.90;;;;;;5112860;28;19976;-47
2022/04/13 02:41:11;;;;;;;;;;;10.30;99.90;;;;;;5105137;28;19924;-47
2022/04/13 02:43:38;;;;;;;;;;;10.30;99.90;;;;;;5092609;28;19932;-47
2022/04/13 02:46:04;;;;;;;;;;;10.20;99.90;;;;;;5097412;28;19932;-47
2022/04/13 02:48:32;;;;;;;;;;;10.10;99.90;;;;;;5085666;28;19924;-47
2022/04/13 02:50:59;;;;;;;;;;;10.10;99.90;;;;;;5086436;28;19924;-46
2022/04/13 02:53:27;;;;;;;;;;;10.30;99.90;;;;;;5092130;28;19925;-48
2022/04/13 02:55:53;;;;;;;;;;;10.40;99.90;;;;;;5093502;28;19924;-47
2022/04/13 02:58:20;;;;;;;;;;;10.60;99.90;;;;;;5100304;28;19924;-47
2022/04/13 03:00:48;;;;;;;;;;;11.00;99.90;;;;;;5109160;28;20530;-47
2022/04/13 03:03:16;;;;;;;;;;;11.00;99.90;;;;;;5096953;28;20374;-47
2022/04/13 03:05:44;;;;;;;;;;;10.80;99.90;;;;;;5097574;28;20404;-47
2022/04/13 03:08:11;;;;;;;;;;;10.80;99.90;;;;;;5083066;28;19928;-47
2022/04/13 03:10:38;;;;;;;;;;;10.80;99.90;;;;;;5085809;28;19935;-48
2022/04/13 03:13:05;;;;;;;;;;;10.90;99.90;;;;;;5090828;28;20001;-46
2022/04/13 03:15:32;;;;;;;;;;;11.10;99.90;;;;;;5092505;28;19924;-48
2022/04/13 03:17:58;;;;;;;;;;;11.20;99.90;;;;;;5112474;28;19924;-48
2022/04/13 03:20:25;;;;;;;;;;;11.30;99.90;;;;;;5095783;28;20386;-47
2022/04/13 03:22:53;;;;;;;;;;;11.00;99.90;;;;;;5091610;28;19924;-47
2022/04/13 03:25:20;;;;;;;;;;;10.90;99.90;;;;;;5097910;28;19924;-47
2022/04/13 03:27:47;;;;;;;;;;;10.60;99.90;;;;;;5112144;28;19932;-48
2022/04/13 03:30:16;;;;;;;;;;;10.50;99.90;;;;;;5113858;28;19927;-48
2022/04/13 03:32:43;;;;;;;;;;;10.30;99.90;;;;;;5096080;28;20002;-47
2022/04/13 03:35:11;;;;;;;;;;;10.50;99.90;;;;;;5091086;28;19969;-47
2022/04/13 03:37:38;;;;;;;;;;;10.60;99.90;;;;;;5102722;28;19927;-47
2022/04/13 03:40:07;;;;;;;;;;;10.70;99.90;;;;;;5117741;22;19990;-59
2022/04/13 03:42:34;;;;;;;;;;;10.80;99.90;;;;;;5093843;28;19977;-58
2022/04/13 03:45:02;;;;;;;;;;;10.90;99.90;;;;;;5080308;28;19928;-58
2022/04/13 03:47:29;;;;;;;;;;;10.80;99.90;;;;;;5087859;28;20282;-57
2022/04/13 03:49:55;;;;;;;;;;;10.80;99.90;;;;;;5096452;28;19970;-57
2022/04/13 03:52:22;;;;;;;;;;;10.70;99.90;;;;;;5094060;28;19928;-59
2022/04/13 03:54:49;;;;;;;;;;;10.60;99.90;;;;;;5100174;28;19924;-57
2022/04/13 03:57:17;;;;;;;;;;;10.60;99.90;;;;;;5095102;28;19928;-57
2022/04/13 03:59:43;;;;;;;;;;;10.50;99.90;;;;;;5095280;28;19924;-57
2022/04/13 04:02:10;;;;;;;;;;;10.40;99.90;;;;;;5094776;28;19924;-59
2022/04/13 04:04:37;;;;;;;;;;;10.00;99.90;;;;;;5094802;28;19986;-58
2022/04/13 04:07:04;;;;;;;;;;;10.00;99.90;;;;;;5100399;28;19981;-58
2022/04/13 04:09:31;;;;;;;;;;;9.80;99.90;;;;;;5092761;28;19928;-58
2022/04/13 04:11:58;;;;;;;;;;;9.70;99.90;;;;;;5091792;28;19973;-58
2022/04/13 04:14:26;;;;;;;;;;;9.60;99.90;;;;;;5103590;28;19935;-59
2022/04/13 04:16:53;;;;;;;;;;;9.50;99.90;;;;;;5096898;28;19924;-58
2022/04/13 04:19:19;;;;;;;;;;;9.40;99.90;;;;;;5093753;28;19924;-58
2022/04/13 04:21:46;;;;;;;;;;;9.30;99.90;;;;;;5093267;28;20035;-57
2022/04/13 04:24:13;;;;;;;;;;;9.20;99.90;;;;;;5094125;28;20308;-58
2022/04/13 04:26:40;;;;;;;;;;;9.10;99.90;;;;;;5093907;28;19928;-58
2022/04/13 04:29:07;;;;;;;;;;;9.10;99.90;;;;;;5093411;28;19924;-57
2022/04/13 04:34:22;;;;;;;;;;;9.00;99.90;;;;;;5086856;28;19935;-58
2022/04/13 04:36:49;;;;;;;;;;;9.00;99.90;;;;;;5093602;28;19924;-58
2022/04/13 04:39:16;;;;;;;;;;;9.00;99.90;;;;;;5094944;28;19932;-57
2022/04/13 04:41:43;;;;;;;;;;;9.00;99.90;;;;;;5102363;28;20401;-59
2022/04/13 04:44:10;;;;;;;;;;;9.10;99.90;;;;;;5081263;28;19971;-57
2022/04/13 04:46:38;;;;;;;;;;;9.10;99.90;;;;;;5080650;28;19924;-57
2022/04/13 04:49:05;;;;;;;;;;;9.10;99.90;;;;;;5093010;28;19974;-57
2022/04/13 04:51:32;;;;;;;;;;;9.10;99.90;;;;;;5091282;28;19974;-56
2022/04/13 04:53:59;;;;;;;;;;;9.20;99.90;;;;;;5088024;28;20011;-56
2022/04/13 04:56:27;;;;;;;;;;;9.20;99.90;;;;;;5093442;28;19928;-57
2022/04/13 04:58:54;;;;;;;;;;;9.30;99.90;;;;;;5092825;28;19978;-58
2022/04/13 05:01:24;;;;;;;;;;;9.30;99.90;;;;;;5092068;28;19932;-56
2022/04/13 05:03:52;;;;;;;;;;;9.40;99.90;;;;;;5092439;28;20348;-58
2022/04/13 05:06:21;;;;;;;;;;;9.50;99.90;;;;;;5092208;28;19924;-58
2022/04/13 05:08:47;;;;;;;;;;;9.60;99.90;;;;;;5091670;28;19931;-58
2022/04/13 05:11:14;;;;;;;;;;;9.80;99.90;;;;;;5091622;28;19977;-57
2022/04/13 05:13:41;;;;;;;;;;;9.90;99.90;;;;;;5093667;28;20353;-58
2022/04/13 05:16:08;;;;;;;;;;;10.10;99.90;;;;;;5090894;28;19943;-58
2022/04/13 05:18:35;;;;;;;;;;;10.20;99.90;;;;;;5090169;28;19978;-57
2022/04/13 05:21:04;;;;;;;;;;;10.30;99.90;;;;;;5091315;28;19932;-57
2022/04/13 05:23:31;;;;;;;;;;;10.50;99.90;;;;;;5091480;28;20352;-58
2022/04/13 05:25:57;;;;;;;;;;;10.70;99.90;;;;;;5091514;28;20011;-58
2022/04/13 05:28:24;;;;;;;;;;;10.80;99.90;;;;;;5091067;28;19925;-59
2022/04/13 05:30:51;;;;;;;;;;;11.00;99.90;;;;;;5091684;28;19928;-58
2022/04/13 05:33:18;;;;;;;;;;;11.30;99.90;;;;;;5090737;28;19931;-59
2022/04/13 05:35:45;;;;;;;;;;;11.70;99.90;;;;;;5091295;28;19978;-58
2022/04/13 05:38:13;;;;;;;;;;;12.50;99.90;;;;;;5103058;28;20018;-59
2022/04/13 05:40:41;;;;;;;;;;;13.70;99.90;;;;;;5090918;28;19963;-58
2022/04/13 05:43:09;;;;;;;;;;;15.20;99.90;;;;;;5091289;28;19924;-60
2022/04/13 05:45:37;;;;;;;;;;;16.50;99.90;;;;;;5075469;28;19924;-59
2022/04/13 05:48:05;;;;;;;;;;;17.40;99.90;;;;;;5087824;28;20381;-60
2022/04/13 05:50:31;;;;;;;;;;;18.50;99.90;;;;;;5086355;28;19928;-59
2022/04/13 05:52:58;;;;;;;;;;;19.60;99.90;;;;;;5092206;28;20011;-59
2022/04/13 05:55:26;;;;;;;;;;;20.50;99.90;;;;;;5092934;28;19924;-59
2022/04/13 05:57:53;;;;;;;;;;;21.10;99.90;;;;;;5088822;28;19993;-60
2022/04/13 06:00:20;;;;;;;;;;;21.70;99.90;;;;;;5100868;28;19931;-61
2022/04/13 06:02:47;;;;;;;;;;;22.20;99.90;;;;;;5090205;28;20446;-59
2022/04/13 06:05:14;;;;;;;;;;;22.80;99.90;;;;;;5082191;28;20344;-58
2022/04/13 06:07:41;;;;;;;;;;;23.50;99.90;;;;;;5092167;28;19967;-61
2022/04/13 06:10:09;;;;;;;;;;;23.80;99.40;;;;;;5095378;28;19942;-59
2022/04/13 06:12:37;;;;;;;;;;;24.20;97.40;;;;;;5103159;28;20011;-60
2022/04/13 06:15:05;;;;;;;;;;;23.80;96.90;;;;;;5088997;28;19936;-60
2022/04/13 06:17:32;;;;;;;;;;;24.00;96.60;;;;;;5085437;28;19932;-61
2022/04/13 06:19:58;;;;;;;;;;;24.50;95.00;;;;;;5103987;28;19923;-60
2022/04/13 06:22:25;;;;;;;;;;;25.00;93.90;;;;;;5090935;28;19924;-62
2022/04/13 06:24:52;;;;;;;;;;;25.90;93.60;;;;;;5090359;28;19981;-59
2022/04/13 06:27:19;;;;;;;;;;;26.10;92.50;;;;;;5092743;28;20381;-60
2022/04/13 06:29:48;;;;;;;;;;;26.60;91.30;;;;;;5088166;28;19928;-58
2022/04/13 06:32:14;;;;;;;;;;;27.40;86.70;;;;;;5089008;28;20374;-58
2022/04/13 06:34:41;;;;;;;;;;;28.00;84.30;;;;;;5089195;28;20560;-58
2022/04/13 06:37:08;;;;;;;;;;;28.80;79.50;;;;;;5089565;28;19924;-61
2022/04/13 06:39:35;;;;;;;;;;;29.30;76.20;;;;;;5090726;28;19928;-59
2022/04/13 06:42:02;;;;;;;;;;;29.90;75.20;;;;;;5089023;28;19935;-60
2022/04/13 06:44:28;;;;;;;;;;;30.70;71.90;;;;;;5090593;28;19924;-59
2022/04/13 06:46:58;;;;;;;;;;;30.70;68.10;;;;;;5095864;28;20026;-61
2022/04/13 06:49:25;;;;;;;;;;;30.40;70.90;;;;;;5090397;28;19931;-60
2022/04/13 06:51:52;;;;;;;;;;;30.50;67.10;;;;;;5097896;28;19928;-62
2022/04/13 06:54:18;;;;;;;;;;;29.90;69.70;;;;;;5111022;28;19928;-60
2022/04/13 06:56:45;;;;;;;;;;;29.30;68.40;;;;;;5095073;28;19989;-61
2022/04/13 06:59:12;;;;;;;;;;;30.20;68.90;;;;;;5090300;28;19932;-62
2022/04/13 07:01:39;;;;;;;;;;;30.80;66.60;;;;;;5093740;28;19923;-61
2022/04/13 07:04:07;;;;;;;;;;;32.20;64.80;;;;;;5110733;28;20001;-62
2022/04/13 07:06:36;;;;;;;;;;;31.70;62.50;;;;;;5113987;28;19996;-61
2022/04/13 07:09:03;;;;;;;;;;;32.20;63.20;;;;;;5097957;28;20283;-62
2022/04/13 07:11:30;;;;;;;;;;;33.00;60.20;;;;;;5094430;28;20420;-61
2022/04/13 07:13:57;;;;;;;;;;;33.50;58.90;;;;;;5094088;28;19932;-61
2022/04/13 07:16:24;;;;;;;;;;;33.90;58.00;;;;;;5093908;28;19924;-61
2022/04/13 07:18:50;;;;;;;;;;;33.80;57.10;;;;;;5093300;28;19928;-62
2022/04/13 07:21:19;;;;;;;;;;;33.70;56.60;;;;;;5093448;28;20544;-62
2022/04/13 07:23:45;;;;;;;;;;;34.40;56.90;;;;;;5094298;28;19985;-59
2022/04/13 07:26:13;;;;;;;;;;;35.60;53.90;;;;;;5094024;28;20021;-59
2022/04/13 07:28:39;;;;;;;;;;;35.90;52.70;;;;;;5092673;28;19924;-60
2022/04/13 07:31:06;;;;;;;;;;;34.90;52.90;;;;;;5092940;28;20407;-60
2022/04/13 07:33:33;;;;;;;;;;;34.50;53.30;;;;;;5093571;28;19928;-60
2022/04/13 07:36:00;;;;;;;;;;;33.90;54.10;;;;;;5093917;28;20412;-61
2022/04/13 07:38:28;;;;;;;;;;;34.60;53.20;;;;;;5093557;28;19924;-61
2022/04/13 07:40:58;;;;;;;;;;;34.10;53.30;;;;;;5093444;28;20339;-60
2022/04/13 07:43:25;;;;;;;;;;;33.70;54.30;;;;;;5093602;28;20301;-62
2022/04/13 07:45:51;;;;;;;;;;;34.60;56.20;;;;;;5093475;28;19924;-61
2022/04/13 07:48:18;;;;;;;;;;;35.00;54.30;;;;;;5093221;28;19928;-61
2022/04/13 07:50:47;;;;;;;;;;;35.40;52.40;;;;;;5093630;28;19924;-61
2022/04/13 07:53:14;;;;;;;;;;;35.20;53.50;;;;;;5093440;28;20039;-61
2022/04/13 07:55:42;;;;;;;;;;;35.40;52.00;;;;;;5093149;28;19932;-61
2022/04/13 07:58:08;;;;;;;;;;;33.10;53.20;;;;;;5092705;28;20344;-60
2022/04/13 08:00:35;;;;;;;;;;;31.40;55.90;;;;;;5093109;28;19927;-62
2022/04/13 08:03:02;;;;;;;;;;;29.40;57.50;;;;;;5093116;28;19928;-60
2022/04/13 08:05:29;;;;;;;;;;;28.60;62.10;;;;;;5093200;28;20424;-61
2022/04/13 08:07:56;;;;;;;;;;;29.80;59.10;;;;;;5093016;28;19985;-60
2022/04/13 08:10:22;;;;;;;;;;;30.30;56.80;;;;;;5093206;28;19928;-61
2022/04/13 08:12:51;;;;;;;;;;;31.00;57.60;;;;;;5093097;28;19924;-60
2022/04/13 08:15:18;;;;;;;;;;;30.70;57.90;;;;;;5092772;28;20250;-60
2022/04/13 08:17:45;;;;;;;;;;;31.00;57.20;;;;;;5092538;28;19924;-62
2022/04/13 08:20:13;;;;;;;;;;;31.30;57.00;;;;;;5092567;28;19928;-62
2022/04/13 08:22:41;;;;;;;;;;;32.80;54.20;;;;;;5094225;28;20293;-62
2022/04/13 08:25:08;;;;;;;;;;;34.20;54.90;;;;;;5093498;28;20378;-62
2022/04/13 08:27:35;;;;;;;;;;;35.20;50.40;;;;;;5093041;28;19954;-62
2022/04/13 08:30:04;;;;;;;;;;;34.70;53.30;;;;;;5093590;28;19928;-61
2022/04/13 08:32:31;;;;;;;;;;;34.60;51.10;;;;;;5093028;28;20275;-61
2022/04/13 08:34:57;;;;;;;;;;;33.10;52.40;;;;;;5093344;28;20296;-62
2022/04/13 08:37:25;;;;;;;;;;;31.10;54.00;;;;;;5093135;28;19989;-62
2022/04/13 08:39:51;;;;;;;;;;;32.50;54.50;;;;;;5092878;28;19924;-62
2022/04/13 08:42:24;;;;;;;;;;;32.70;52.10;;;;;;5092961;28;19924;-62
2022/04/13 08:44:52;;;;;;;;;;;31.70;53.00;;;;;;5099943;28;20382;-62
2022/04/13 08:47:21;;;;;;;;;;;30.50;55.00;;;;;;5103345;28;20246;-62
2022/04/13 08:49:50;;;;;;;;;;;31.00;56.30;;;;;;5092528;28;19924;-62
2022/04/13 08:52:19;;;;;;;;;;;30.80;57.70;;;;;;5092822;28;19963;-62
2022/04/13 08:54:51;;;;;;;;;;;29.60;60.40;;;;;;5093134;28;19924;-62
2022/04/13 08:57:20;;;;;;;;;;;27.90;62.60;;;;;;5079419;28;20057;-62
2022/04/13 08:59:51;;;;;;;;;;;28.50;63.60;;;;;;5093021;28;19928;-63
2022/04/13 09:02:24;;;;;;;;;;;28.70;63.10;;;;;;5094510;28;19936;-62
2022/04/13 09:04:51;;;;;;;;;;;29.00;62.50;;;;;;5092030;28;20316;-63
2022/04/13 09:07:18;;;;;;;;;;;29.70;60.40;;;;;;5092684;28;20524;-63
2022/04/13 09:09:47;;;;;;;;;;;28.50;63.60;;;;;;5092859;28;19924;-63
2022/04/13 09:12:14;;;;;;;;;;;27.90;65.80;;;;;;5092340;28;20422;-63
2022/04/13 09:14:41;;;;;;;;;;;27.80;67.50;;;;;;5092327;28;19997;-63
2022/04/13 09:17:08;;;;;;;;;;;28.80;67.00;;;;;;5091824;28;19924;-63
2022/04/13 09:19:37;;;;;;;;;;;30.50;62.80;;;;;;5089740;28;20275;-63
2022/04/13 09:22:05;;;;;;;;;;;30.80;61.80;;;;;;5092141;28;20003;-63
2022/04/13 09:24:32;;;;;;;;;;;29.40;61.70;;;;;;5091607;28;19932;-63
2022/04/13 09:26:59;;;;;;;;;;;30.50;60.50;;;;;;5091914;28;19974;-63
2022/04/13 09:29:26;;;;;;;;;;;31.50;60.30;;;;;;5091740;28;19924;-63
2022/04/13 09:31:53;;;;;;;;;;;31.30;60.60;;;;;;5091649;28;19978;-63
2022/04/13 09:34:20;;;;;;;;;;;30.70;60.80;;;;;;5091728;28;19932;-62
2022/04/13 09:36:49;;;;;;;;;;;30.70;62.70;;;;;;5091606;28;19924;-63
2022/04/13 09:39:16;;;;;;;;;;;31.80;60.80;;;;;;5092353;28;19924;-63
2022/04/13 09:41:43;;;;;;;;;;;30.70;60.30;;;;;;5114225;22;20346;-51
2022/04/13 09:44:14;;;;;;;;;;;28.90;64.10;;;;;;5093267;28;19924;-52
2022/04/13 09:46:41;;;;;;;;;;;29.90;61.90;;;;;;5113472;28;19935;-51
2022/04/13 09:49:08;;;;;;;;;;;30.90;61.10;;;;;;5107733;28;19927;-52
2022/04/13 09:51:39;;;;;;;;;;;31.70;58.60;;;;;;5094197;28;19924;-52
2022/04/13 09:54:08;;;;;;;;;;;31.30;58.40;;;;;;5094994;28;19924;-52
2022/04/13 09:56:36;;;;;;;;;;;31.30;58.70;;;;;;5095400;28;19958;-52
2022/04/13 09:59:04;;;;;;;;;;;31.40;58.10;;;;;;5100697;28;19924;-51
2022/04/13 10:01:32;;;;;;;;;;;32.20;56.80;;;;;;5106145;28;19931;-52
2022/04/13 10:03:59;;;;;;;;;;;32.20;57.10;;;;;;5092599;28;19977;-51
2022/04/13 10:06:29;;;;;;;;;;;31.30;56.70;;;;;;5092887;28;20383;-53
2022/04/13 10:09:00;;;;;;;;;;;31.20;56.80;;;;;;5092945;28;20027;-52
2022/04/13 10:11:31;;;;;;;;;;;30.90;56.40;;;;;;5099756;28;19923;-51
2022/04/13 10:14:01;;;;;;;;;;;31.60;56.80;;;;;;5103148;28;19985;-52
2022/04/13 10:16:32;;;;;;;;;;;31.70;56.90;;;;;;5094560;28;20358;-53
2022/04/13 10:18:59;;;;;;;;;;;31.40;57.70;;;;;;5111873;28;19927;-52
2022/04/13 10:21:36;;;;;;;;;;;30.90;57.90;;;;;;5107384;28;19924;-51
2022/04/13 10:24:03;;;;;;;;;;;31.60;56.10;;;;;;5089470;28;19969;-49
2022/04/13 10:26:34;;;;;;;;;;;30.40;56.50;;;;;;5091708;28;19924;-48
2022/04/13 10:29:00;;;;;;;;;;;30.10;57.80;;;;;;5091496;28;19924;-52
2022/04/13 10:31:27;;;;;;;;;;;30.30;60.50;;;;;;5091268;28;20354;-51
2022/04/13 10:33:55;;;;;;;;;;;30.30;57.40;;;;;;5091514;28;19924;-50
2022/04/13 10:36:22;;;;;;;;;;;29.10;59.40;;;;;;5091572;28;20610;-48
2022/04/13 10:38:49;;;;;;;;;;;29.60;57.30;;;;;;5090367;28;20346;-50
2022/04/13 10:41:17;;;;;;;;;;;30.50;55.70;;;;;;5098911;28;19932;-49
2022/04/13 10:43:47;;;;;;;;;;;30.80;54.70;;;;;;5110798;28;20025;-50
2022/04/13 10:46:15;;;;;;;;;;;30.70;55.80;;;;;;5110925;28;19927;-48
2022/04/13 10:48:44;;;;;;;;;;;31.50;54.20;;;;;;5101130;28;19934;-53
2022/04/13 10:51:13;;;;;;;;;;;30.30;56.10;;;;;;5090969;28;19928;-53
2022/04/13 10:53:43;;;;;;;;;;;28.10;58.50;;;;;;5091261;28;19931;-50
2022/04/13 10:56:11;;;;;;;;;;;27.60;60.70;;;;;;5090606;28;19924;-51
2022/04/13 10:58:44;;;;;;;;;;;26.70;62.60;;;;;;5098486;28;19928;-49
2022/04/13 11:01:14;;;;;;;;;;;25.40;65.60;;;;;;5091190;28;19982;-50
2022/04/13 11:03:41;;;;;;;;;;;24.40;68.90;;;;;;5107365;28;20018;-49
2022/04/13 11:06:09;;;;;;;;;;;24.20;72.30;;;;;;5108825;28;19923;-49
2022/04/13 11:08:38;;;;;;;;;;;24.00;72.60;;;;;;5091609;28;20302;-49
2022/04/13 11:11:05;;;;;;;;;;;23.70;74.40;;;;;;5091795;28;19931;-52
2022/04/13 11:13:33;;;;;;;;;;;23.00;73.10;;;;;;5091818;28;19978;-49
2022/04/13 11:16:14;;;;;;;;;;;22.90;73.90;;;;;;5091946;28;19924;-49
2022/04/13 11:18:41;;;;;;;;;;;22.40;75.50;;;;;;5071501;28;19964;-49
2022/04/13 11:21:08;;;;;;;;;;;22.10;78.70;;;;;;5071343;28;19924;-51
2022/04/13 11:23:48;;;;;;;;;;;22.40;78.20;;;;;;5071596;28;20352;-49
2022/04/13 11:26:15;;;;;;;;;;;22.60;75.30;;;;;;5073269;28;19943;-50
2022/04/13 11:28:42;;;;;;;;;;;23.20;78.80;;;;;;5091855;28;20359;-48
2022/04/13 11:31:10;;;;;;;;;;;22.90;75.00;;;;;;5091338;28;20494;-48
2022/04/13 11:33:42;;;;;;;;;;;22.50;77.60;;;;;;5091832;28;19993;-49
2022/04/13 11:36:09;;;;;;;;;;;22.80;79.00;;;;;;5091901;28;19928;-49
2022/04/13 11:38:36;;;;;;;;;;;23.10;76.40;;;;;;5092252;28;19924;-50
2022/04/13 11:41:07;;;;;;;;;;;22.80;78.40;;;;;;5093261;28;20335;-50
2022/04/13 11:43:33;;;;;;;;;;;22.30;75.40;;;;;;5106870;28;20010;-50
2022/04/13 11:46:00;;;;;;;;;;;21.80;77.80;;;;;;5098570;28;19928;-49
2022/04/13 11:48:34;;;;;;;;;;;22.40;75.20;;;;;;5090260;28;19928;-49
2022/04/13 11:51:26;;;;;;;;;;;22.80;78.90;;;;;;5091604;28;19938;-50
2022/04/13 11:53:54;;;;;;;;;;;22.70;77.00;;;;;;5095146;28;20341;-50
2022/04/13 11:56:31;;;;;;;;;;;22.40;77.40;;;;;;5094799;28;19977;-50
2022/04/13 11:58:58;;;;;;;;;;;22.70;78.00;;;;;;5090690;28;19924;-52
2022/04/13 12:01:25;;;;;;;;;;;22.60;75.60;;;;;;5094658;28;19993;-49
2022/04/13 12:03:52;;;;;;;;;;;22.80;75.80;;;;;;5093700;28;19928;-49
2022/04/13 12:06:22;;;;;;;;;;;23.00;76.80;;;;;;5094208;28;20039;-49
2022/04/13 12:08:52;;;;;;;;;;;22.90;78.30;;;;;;5094073;28;19924;-49
2022/04/13 12:11:20;;;;;;;;;;;23.10;80.60;;;;;;5093878;28;20022;-50
2022/04/13 12:13:48;;;;;;;;;;;23.40;76.60;;;;;;5094000;28;19932;-50
2022/04/13 12:16:19;;;;;;;;;;;23.40;76.40;;;;;;5102541;28;19980;-48
2022/04/13 12:18:46;;;;;;;;;;;23.90;77.30;;;;;;5102598;28;20019;-50
2022/04/13 12:21:15;;;;;;;;;;;24.10;73.80;;;;;;5094173;28;19932;-50
2022/04/13 12:23:42;;;;;;;;;;;24.30;74.30;;;;;;5094612;28;19924;-50
2022/04/13 12:26:10;;;;;;;;;;;24.30;74.70;;;;;;5094439;28;19931;-51
2022/04/13 12:28:38;;;;;;;;;;;24.30;74.70;;;;;;5093277;28;19924;-51
2022/04/13 12:31:07;;;;;;;;;;;24.30;73.90;;;;;;5089350;28;20009;-50
2022/04/13 12:33:34;;;;;;;;;;;24.20;75.00;;;;;;5093815;28;19928;-50
2022/04/13 12:36:02;;;;;;;;;;;24.50;74.70;;;;;;5091736;28;19977;-51
2022/04/13 12:38:29;;;;;;;;;;;24.60;78.40;;;;;;5094208;28;19928;-50
2022/04/13 12:41:03;;;;;;;;;;;24.60;76.60;;;;;;5094273;28;19927;-49
2022/04/13 12:43:32;;;;;;;;;;;24.30;75.00;;;;;;5093696;28;19928;-50
2022/04/13 12:45:59;;;;;;;;;;;23.50;76.70;;;;;;5093676;28;20008;-49
2022/04/13 12:48:26;;;;;;;;;;;23.40;76.30;;;;;;5094110;28;20378;-49
2022/04/13 12:50:57;;;;;;;;;;;23.40;77.20;;;;;;5094464;28;20018;-54
2022/04/13 12:53:24;;;;;;;;;;;23.10;77.70;;;;;;5096960;28;19936;-49
2022/04/13 12:55:51;;;;;;;;;;;23.40;77.70;;;;;;5092503;28;19932;-49
2022/04/13 12:58:18;;;;;;;;;;;23.60;77.80;;;;;;5093935;28;19928;-49
2022/04/13 13:00:50;;;;;;;;;;;23.80;76.80;;;;;;5093799;28;19977;-50
2022/04/13 13:03:17;;;;;;;;;;;23.60;76.70;;;;;;5092182;28;20489;-49
2022/04/13 13:05:44;;;;;;;;;;;23.60;78.30;;;;;;5093985;28;19924;-49
2022/04/13 13:08:11;;;;;;;;;;;23.70;78.30;;;;;;5093816;28;19924;-50
2022/04/13 13:10:38;;;;;;;;;;;23.80;77.40;;;;;;5093687;28;19974;-50
2022/04/13 13:13:12;;;;;;;;;;;23.90;76.50;;;;;;5096719;28;19927;-50
2022/04/13 13:15:39;;;;;;;;;;;23.60;77.10;;;;;;5093729;28;19928;-50
2022/04/13 13:18:08;;;;;;;;;;;23.60;78.80;;;;;;5093743;28;19924;-51
2022/04/13 13:20:35;;;;;;;;;;;23.50;78.20;;;;;;5093405;28;20352;-50
2022/04/13 13:23:08;;;;;;;;;;;23.60;77.00;;;;;;5093098;28;19924;-51
2022/04/13 13:25:40;;;;;;;;;;;23.70;78.70;;;;;;5110208;28;19927;-52
2022/04/13 13:28:07;;;;;;;;;;;23.30;78.90;;;;;;5113970;28;19928;-49
2022/04/13 13:30:38;;;;;;;;;;;23.50;80.20;;;;;;5113493;28;19935;-50
2022/04/13 13:33:09;;;;;;;;;;;23.80;79.80;;;;;;5100340;28;19927;-50
2022/04/13 13:35:37;;;;;;;;;;;23.90;78.00;;;;;;5092648;28;19924;-49
2022/04/13 13:38:06;;;;;;;;;;;24.00;78.90;;;;;;5093112;28;19981;-51
2022/04/13 13:40:41;;;;;;;;;;;24.20;78.50;;;;;;5092279;28;19978;-50
2022/04/13 13:43:08;;;;;;;;;;;23.70;78.40;;;;;;5072519;28;19924;-49
2022/04/13 13:45:36;;;;;;;;;;;23.60;79.90;;;;;;5097621;28;19927;-50
2022/04/13 13:48:03;;;;;;;;;;;23.80;80.70;;;;;;5104452;28;19954;-51
2022/04/13 13:50:31;;;;;;;;;;;23.90;81.30;;;;;;5111387;28;19928;-50
2022/04/13 13:52:59;;;;;;;;;;;23.80;81.00;;;;;;5092066;28;19933;-49
2022/04/13 13:55:27;;;;;;;;;;;23.90;80.20;;;;;;5092463;28;20032;-50
2022/04/13 13:57:54;;;;;;;;;;;23.70;80.50;;;;;;5092653;28;20007;-50
2022/04/13 14:00:21;;;;;;;;;;;23.50;81.40;;;;;;5092570;28;20378;-50
2022/04/13 14:02:52;;;;;;;;;;;23.50;82.00;;;;;;5091659;28;19925;-50
2022/04/13 14:05:20;;;;;;;;;;;23.60;81.10;;;;;;5099383;28;20411;-51
2022/04/13 14:07:47;;;;;;;;;;;23.60;81.60;;;;;;5102779;28;19970;-51
2022/04/13 14:10:15;;;;;;;;;;;23.80;81.90;;;;;;5098350;28;19950;-49
2022/04/13 14:12:42;;;;;;;;;;;24.30;80.50;;;;;;5092288;28;19924;-50
2022/04/13 14:15:11;;;;;;;;;;;24.50;80.00;;;;;;5092657;28;19924;-49
2022/04/13 14:17:38;;;;;;;;;;;24.60;79.10;;;;;;5096506;28;19927;-50
2022/04/13 14:20:05;;;;;;;;;;;24.30;79.50;;;;;;5112054;28;19934;-50
2022/04/13 14:22:33;;;;;;;;;;;24.00;80.30;;;;;;5098647;28;19986;-50
2022/04/13 14:24:59;;;;;;;;;;;23.80;80.70;;;;;;5092615;28;20052;-49